Time;durP1;ratioP1;P1;durP2;ratioP2;P2;SDS_P1;SDS_P2;PMS_P1;PMS_P2;Temp;Humidity;BMP_temperature;BMP_pressure;BME280_temperature;BME280_humidity;BME280_pressure;Samples;Min_cycle;Max_cycle;Signal;HPM_P1;HPM_P2
2022/04/26 03:36:18;;;;;;;0.73;0.73;;;9.30;99.90;;;;;;5107873;28;20654;-86
2022/04/26 03:38:47;;;;;;;0.53;0.53;;;9.20;99.90;;;;;;5106941;28;20672;-86
2022/04/26 03:41:15;;;;;;;0.70;0.70;;;9.20;99.90;;;;;;5108091;28;20628;-86
2022/04/26 03:43:42;;;;;;;0.30;0.20;;;9.20;99.90;;;;;;5106562;28;21323;-85
2022/04/26 03:46:09;;;;;;;2.00;1.80;;;9.20;99.90;;;;;;5108345;28;20673;-87
2022/04/26 03:48:37;;;;;;;0.83;0.50;;;9.20;99.90;;;;;;5104959;28;20656;-86
2022/04/26 03:51:04;;;;;;;0.83;0.83;;;9.20;99.90;;;;;;5108271;28;20612;-86
2022/04/26 03:53:31;;;;;;;0.80;0.60;;;9.10;99.90;;;;;;5108132;28;20615;-86
2022/04/26 03:55:58;;;;;;;0.43;0.43;;;9.10;99.90;;;;;;5107821;28;20655;-86
2022/04/26 03:58:26;;;;;;;1.70;1.60;;;9.10;99.90;;;;;;5108237;28;20746;-86
2022/04/26 04:00:53;;;;;;;1.30;0.80;;;9.20;99.90;;;;;;5107532;28;20739;-86
2022/04/26 04:03:20;;;;;;;0.30;0.20;;;9.20;99.90;;;;;;5108147;28;20614;-86
2022/04/26 04:05:48;;;;;;;0.40;0.20;;;9.20;99.90;;;;;;5107746;28;20699;-87
2022/04/26 04:08:15;;;;;;;0.83;0.83;;;9.10;99.90;;;;;;5108063;28;21074;-86
2022/04/26 04:10:42;;;;;;;0.30;0.20;;;9.10;99.90;;;;;;5107796;28;20649;-85
2022/04/26 04:13:10;;;;;;;0.73;0.50;;;9.00;99.90;;;;;;5107696;28;20673;-86
2022/04/26 04:15:37;;;;;;;0.30;0.17;;;9.00;99.90;;;;;;5108146;28;20647;-85
2022/04/26 04:19:17;;;;;;;1.23;0.97;;;9.00;99.90;;;;;;5111680;28;21113;-86
2022/04/26 04:20:53;;;;;;;0.40;0.33;;;9.00;99.90;;;;;;5110367;28;20684;-85
2022/04/26 04:23:20;;;;;;;1.13;0.43;;;9.00;99.90;;;;;;5111273;28;20615;-86
2022/04/26 04:25:47;;;;;;;2.00;1.20;;;9.10;99.90;;;;;;5111425;28;21066;-85
2022/04/26 04:28:14;;;;;;;1.27;1.27;;;9.10;99.90;;;;;;5110448;28;20655;-86
2022/04/26 04:30:41;;;;;;;0.30;0.20;;;9.10;99.90;;;;;;5110744;28;21176;-85
2022/04/26 04:33:08;;;;;;;0.30;0.20;;;9.10;99.90;;;;;;5110133;28;20251;-86
2022/04/26 04:35:35;;;;;;;0.60;0.57;;;9.10;99.90;;;;;;5110589;28;20651;-86
2022/04/26 04:38:04;;;;;;;0.37;0.37;;;9.10;99.90;;;;;;5111348;28;20620;-85
2022/04/26 04:40:30;;;;;;;0.30;0.20;;;9.10;99.90;;;;;;5111084;28;21242;-85
2022/04/26 04:42:58;;;;;;;1.03;1.03;;;9.00;99.90;;;;;;5110973;28;21273;-85
2022/04/26 04:45:25;;;;;;;0.60;0.60;;;9.00;99.90;;;;;;5111215;28;20623;-86
2022/04/26 04:47:51;;;;;;;2.13;0.67;;;9.00;99.90;;;;;;5111338;28;20684;-85
2022/04/26 04:50:18;;;;;;;0.40;0.40;;;9.10;99.90;;;;;;5110664;28;21173;-86
2022/04/26 04:52:45;;;;;;;0.67;0.67;;;9.00;99.90;;;;;;5110914;28;21027;-85
2022/04/26 04:55:13;;;;;;;0.40;0.40;;;9.10;99.90;;;;;;5110957;28;20616;-85
2022/04/26 04:57:40;;;;;;;0.60;0.30;;;9.10;99.90;;;;;;5110692;28;20684;-85
2022/04/26 05:00:08;;;;;;;1.33;0.67;;;9.10;99.90;;;;;;5110223;28;20683;-85
2022/04/26 05:02:35;;;;;;;1.57;1.17;;;9.10;99.90;;;;;;5110658;28;21200;-85
2022/04/26 05:05:02;;;;;;;1.47;0.57;;;9.00;99.90;;;;;;5110937;28;20615;-86
2022/04/26 05:07:29;;;;;;;1.67;1.57;;;9.10;99.90;;;;;;5110328;28;20624;-85
2022/04/26 05:09:56;;;;;;;0.50;0.50;;;9.10;99.90;;;;;;5110680;28;20672;-85
2022/04/26 05:12:25;;;;;;;1.13;1.07;;;9.10;99.90;;;;;;5110329;28;20727;-85
2022/04/26 05:14:52;;;;;;;0.60;0.60;;;9.10;99.90;;;;;;5110871;28;20623;-86
2022/04/26 05:17:19;;;;;;;5.80;0.67;;;9.10;99.90;;;;;;5109740;28;20678;-85
2022/04/26 05:19:45;;;;;;;0.30;0.20;;;9.20;99.90;;;;;;5109743;28;20627;-85
2022/04/26 05:22:14;;;;;;;0.30;0.20;;;9.20;99.90;;;;;;5110166;28;20727;-85
2022/04/26 05:24:57;;;;;;;0.57;0.57;;;9.20;99.90;;;;;;5108902;28;21189;-86
2022/04/26 05:27:27;;;;;;;1.05;0.60;;;9.20;99.90;;;;;;5108161;28;20744;-84
2022/04/26 05:29:54;;;;;;;1.07;0.57;;;9.30;99.90;;;;;;5108887;28;20206;-85
2022/04/26 05:32:22;;;;;;;0.33;0.33;;;9.30;99.90;;;;;;5109799;28;20619;-86
2022/04/26 05:34:55;;;;;;;0.50;0.50;;;9.30;99.90;;;;;;5110488;28;20611;-85
2022/04/26 05:37:21;;;;;;;0.63;0.30;;;9.30;99.90;;;;;;5091502;28;20652;-85
2022/04/26 05:39:48;;;;;;;0.57;0.57;;;9.30;99.90;;;;;;5110375;28;21173;-85
2022/04/26 05:42:15;;;;;;;0.77;0.37;;;9.40;99.90;;;;;;5107380;27;20628;-85
2022/04/26 05:44:44;;;;;;;1.23;0.40;;;9.40;99.90;;;;;;5106558;28;20623;-85
2022/04/26 05:47:10;;;;;;;1.13;1.00;;;9.40;99.90;;;;;;5108928;28;20743;-85
2022/04/26 05:49:37;;;;;;;0.80;0.60;;;9.40;99.90;;;;;;5109301;28;20623;-85
2022/04/26 05:52:05;;;;;;;0.60;0.57;;;9.30;99.90;;;;;;5110144;28;20619;-86
2022/04/26 05:54:32;;;;;;;1.57;0.83;;;9.40;99.90;;;;;;5109530;28;21059;-85
2022/04/26 05:57:00;;;;;;;0.43;0.43;;;9.40;99.90;;;;;;5109689;28;20683;-84
2022/04/26 05:59:27;;;;;;;0.87;0.67;;;9.50;99.90;;;;;;5109067;28;21904;-85
2022/04/26 06:01:56;;;;;;;1.23;0.67;;;9.50;99.90;;;;;;5108192;28;20639;-84
2022/04/26 06:04:24;;;;;;;1.97;1.87;;;9.50;99.90;;;;;;5109440;28;20635;-85
2022/04/26 06:06:50;;;;;;;1.10;1.00;;;9.50;99.90;;;;;;5110035;28;20630;-85
2022/04/26 06:09:19;;;;;;;0.50;0.40;;;9.50;99.90;;;;;;5109353;28;20623;-84
2022/04/26 06:11:46;;;;;;;0.30;0.23;;;9.50;99.90;;;;;;5109474;28;21081;-85
2022/04/26 06:14:14;;;;;;;2.40;1.33;;;9.50;99.90;;;;;;5109737;28;20644;-84
2022/04/26 06:16:41;;;;;;;0.30;0.10;;;9.50;99.90;;;;;;5108909;28;21252;-84
2022/04/26 06:19:09;;;;;;;2.10;1.17;;;9.50;99.90;;;;;;5109656;28;20615;-84
2022/04/26 06:21:36;;;;;;;0.30;0.20;;;9.50;99.90;;;;;;5109166;28;20623;-84
2022/04/26 06:24:04;;;;;;;0.70;0.70;;;9.60;99.90;;;;;;5109675;28;20615;-84
2022/04/26 06:26:31;;;;;;;0.50;0.50;;;9.60;99.90;;;;;;5108718;28;20718;-84
2022/04/26 06:28:58;;;;;;;0.87;0.87;;;9.70;99.90;;;;;;5109397;28;20655;-84
2022/04/26 06:31:24;;;;;;;0.30;0.20;;;9.70;99.90;;;;;;5108571;28;20726;-85
2022/04/26 06:33:51;;;;;;;0.67;0.53;;;9.70;99.90;;;;;;5109193;28;20623;-84
2022/04/26 06:36:20;;;;;;;0.67;0.67;;;9.70;99.90;;;;;;5092903;28;20651;-84
2022/04/26 06:38:47;;;;;;;0.70;0.70;;;9.70;99.90;;;;;;5107606;28;20622;-84
2022/04/26 06:41:15;;;;;;;0.90;0.40;;;9.80;99.90;;;;;;5108421;28;20612;-84
2022/04/26 06:43:42;;;;;;;2.07;0.90;;;9.80;99.90;;;;;;5108678;28;20630;-85
2022/04/26 06:46:09;;;;;;;0.40;0.30;;;9.70;99.90;;;;;;5108792;28;20627;-84
2022/04/26 06:48:36;;;;;;;0.50;0.50;;;9.70;99.90;;;;;;5108263;28;20623;-85
2022/04/26 06:51:02;;;;;;;0.40;0.40;;;9.70;99.90;;;;;;5108719;28;20718;-84
2022/04/26 06:53:31;;;;;;;0.50;0.50;;;9.80;99.90;;;;;;5108440;28;21255;-84
2022/04/26 06:55:59;;;;;;;1.13;0.93;;;9.80;99.90;;;;;;5108396;28;20639;-85
2022/04/26 06:58:26;;;;;;;0.30;0.23;;;9.80;99.90;;;;;;5108369;28;20703;-84
2022/04/26 07:00:53;;;;;;;0.47;0.43;;;9.70;99.90;;;;;;5108676;28;21042;-85
2022/04/26 07:03:20;;;;;;;0.30;0.30;;;9.70;99.90;;;;;;5108808;28;20631;-84
2022/04/26 07:05:51;;;;;;;0.50;0.40;;;9.70;99.90;;;;;;5108554;28;20659;-84
2022/04/26 07:08:17;;;;;;;2.63;2.53;;;9.70;99.90;;;;;;5108591;28;20619;-84
2022/04/26 07:10:46;;;;;;;0.47;0.47;;;9.80;99.90;;;;;;5108329;28;20623;-84
2022/04/26 07:13:15;;;;;;;2.93;0.80;;;9.80;99.90;;;;;;5108376;28;20647;-84
2022/04/26 07:15:42;;;;;;;1.07;1.07;;;9.90;99.90;;;;;;5108351;28;20635;-84
2022/04/26 07:18:09;;;;;;;0.40;0.30;;;9.90;99.90;;;;;;5108181;28;20732;-84
2022/04/26 07:20:36;;;;;;;1.23;1.13;;;9.90;99.90;;;;;;5108400;28;21209;-84
2022/04/26 07:23:03;;;;;;;0.77;0.77;;;10.00;99.90;;;;;;5108055;28;21348;-84
2022/04/26 07:25:29;;;;;;;0.30;0.20;;;10.00;99.90;;;;;;5108323;28;20687;-85
2022/04/26 07:27:58;;;;;;;0.57;0.57;;;10.00;99.90;;;;;;5108354;28;21034;-84
2022/04/26 07:30:32;;;;;;;0.30;0.20;;;10.20;99.90;;;;;;5108466;28;20655;-84
2022/04/26 07:35:43;;;;;;;3.20;0.60;;;10.30;99.90;;;;;;5107962;28;20605;-84
2022/04/26 07:38:10;;;;;;;0.30;0.20;;;10.50;99.90;;;;;;5107411;28;21323;-83
2022/04/26 07:40:37;;;;;;;1.47;1.37;;;10.50;99.90;;;;;;5108145;28;20662;-84
2022/04/26 07:43:06;;;;;;;0.60;0.37;;;10.50;99.90;;;;;;5108098;28;21024;-84
2022/04/26 07:45:33;;;;;;;1.03;0.60;;;10.30;99.90;;;;;;5108016;28;20718;-84
2022/04/26 07:48:01;;;;;;;0.70;0.67;;;10.20;99.90;;;;;;5108448;28;20669;-84
2022/04/26 07:50:30;;;;;;;0.40;0.40;;;10.20;99.90;;;;;;5107997;28;21385;-83
2022/04/26 07:52:57;;;;;;;0.40;0.30;;;10.00;99.90;;;;;;5112255;28;20714;-84
2022/04/26 07:55:24;;;;;;;1.23;0.53;;;10.00;99.90;;;;;;5111872;28;20630;-83
2022/04/26 07:57:51;;;;;;;0.33;0.30;;;10.00;99.90;;;;;;5111851;28;20784;-83
2022/04/26 08:00:20;;;;;;;1.03;0.50;;;10.10;99.90;;;;;;5112347;28;20731;-83
2022/04/26 08:02:47;;;;;;;1.27;0.73;;;10.10;99.90;;;;;;5112187;28;20696;-84
2022/04/26 08:05:14;;;;;;;2.00;1.30;;;10.20;99.90;;;;;;5110864;28;21232;-84
2022/04/26 08:07:41;;;;;;;0.83;0.50;;;10.20;99.90;;;;;;5111970;28;20634;-83
2022/04/26 08:10:10;;;;;;;1.07;0.47;;;10.10;99.90;;;;;;5111734;28;20700;-83
2022/04/26 08:12:38;;;;;;;0.67;0.57;;;10.10;99.90;;;;;;5111799;28;20620;-84
2022/04/26 08:15:05;;;;;;;0.40;0.40;;;10.10;99.90;;;;;;5111073;28;20658;-84
2022/04/26 08:17:34;;;;;;;0.40;0.40;;;9.90;99.90;;;;;;5110898;28;20716;-84
2022/04/26 08:20:01;;;;;;;0.50;0.50;;;9.90;99.90;;;;;;5111717;28;20743;-84
2022/04/26 08:22:28;;;;;;;0.30;0.20;;;10.00;99.90;;;;;;5110869;28;20623;-85
2022/04/26 08:27:40;;;;;;;0.97;0.40;;;10.20;99.90;;;;;;5111690;28;20619;-85
2022/04/26 08:30:08;;;;;;;0.30;0.20;;;10.20;99.90;;;;;;5111277;28;20704;-84
2022/04/26 08:32:44;;;;;;;0.40;0.30;;;10.10;99.90;;;;;;5111704;28;20627;-84
2022/04/26 08:35:14;;;;;;;0.80;0.80;;;10.20;99.90;;;;;;5102604;28;20627;-84
2022/04/26 08:37:42;;;;;;;2.00;1.50;;;10.30;99.90;;;;;;5110887;27;20675;-84
2022/04/26 08:40:10;;;;;;;1.13;1.13;;;10.30;99.90;;;;;;5111103;28;21208;-84
2022/04/26 08:42:38;;;;;;;0.30;0.30;;;10.30;99.90;;;;;;5110674;28;21246;-84
2022/04/26 08:45:07;;;;;;;0.63;0.50;;;10.30;99.90;;;;;;5111293;28;20725;-84
2022/04/26 08:53:15;;;;;;;0.60;0.60;;;10.50;99.90;;;;;;5089404;28;20616;-84
2022/04/26 08:55:44;;;;;;;0.30;0.20;;;10.60;99.90;;;;;;5110592;28;20642;-85
2022/04/26 08:58:12;;;;;;;0.97;0.97;;;10.60;99.90;;;;;;5110708;28;20641;-84
2022/04/26 09:00:41;;;;;;;0.40;0.30;;;10.70;99.90;;;;;;5110792;28;21350;-85
2022/04/26 09:03:11;;;;;;;0.37;0.37;;;10.70;99.90;;;;;;5109602;28;20722;-84
2022/04/26 09:05:39;;;;;;;0.40;0.40;;;10.70;99.90;;;;;;5110445;28;20630;-85
2022/04/26 09:08:22;;;;;;;0.93;0.93;;;10.70;99.90;;;;;;5110392;28;20654;-85
2022/04/26 09:10:50;;;;;;;0.40;0.40;;;10.70;99.90;;;;;;5110457;27;20624;-84
2022/04/26 09:13:20;;;;;;;0.87;0.70;;;10.70;99.90;;;;;;5110223;28;20673;-84
2022/04/26 09:15:49;;;;;;;1.83;1.07;;;10.50;99.90;;;;;;5110061;28;20677;-85
2022/04/26 09:18:21;;;;;;;2.20;1.20;;;10.40;99.90;;;;;;5110628;28;20655;-86
2022/04/26 09:20:52;;;;;;;0.30;0.20;;;10.40;99.90;;;;;;5110647;28;20619;-86
2022/04/26 09:23:21;;;;;;;0.30;0.20;;;10.30;99.90;;;;;;5110692;28;20623;-85
2022/04/26 09:25:51;;;;;;;2.13;1.93;;;11.40;99.90;;;;;;5110407;28;20763;-86
2022/04/26 09:28:23;;;;;;;1.10;1.00;;;10.40;99.90;;;;;;5109721;28;20622;-85
2022/04/26 09:30:51;;;;;;;1.27;0.67;;;10.50;99.90;;;;;;5110142;28;20710;-86
2022/04/26 09:33:38;;;;;;;0.43;0.43;;;10.70;99.90;;;;;;5110509;27;20619;-85
2022/04/26 09:36:10;;;;;;;0.30;0.20;;;10.70;99.90;;;;;;5110382;28;20703;-86
2022/04/26 09:38:37;;;;;;;0.43;0.43;;;11.00;99.90;;;;;;5109623;28;20745;-85
2022/04/26 09:41:05;;;;;;;0.50;0.50;;;11.20;99.90;;;;;;5109988;28;20642;-85
2022/04/26 09:43:33;;;;;;;0.80;0.73;;;11.30;99.90;;;;;;5110144;28;20631;-85
2022/04/26 09:46:00;;;;;;;0.50;0.50;;;11.60;99.90;;;;;;5110291;28;20628;-88
2022/04/26 09:48:29;;;;;;;0.40;0.30;;;11.70;99.30;;;;;;5110434;28;20674;-85
2022/04/26 09:50:58;;;;;;;0.30;0.20;;;11.60;98.10;;;;;;5109661;28;20694;-86
2022/04/26 09:53:29;;;;;;;1.83;0.60;;;11.70;97.30;;;;;;5109633;28;20718;-86
2022/04/26 09:55:58;;;;;;;0.30;0.27;;;11.80;97.10;;;;;;5114371;28;20640;-85
2022/04/26 09:58:27;;;;;;;0.63;0.47;;;11.90;97.40;;;;;;5113468;28;21051;-84
2022/04/26 10:00:56;;;;;;;1.10;0.97;;;11.90;96.60;;;;;;5109999;28;21077;-85
2022/04/26 10:03:26;;;;;;;1.27;1.00;;;11.80;95.50;;;;;;5110007;28;20686;-85
2022/04/26 10:06:02;;;;;;;0.70;0.67;;;11.80;95.70;;;;;;5109236;28;21243;-85
2022/04/26 10:08:32;;;;;;;0.70;0.70;;;12.00;95.80;;;;;;5109733;28;20618;-85
2022/04/26 10:11:00;;;;;;;0.67;0.67;;;12.10;96.00;;;;;;5111225;28;21430;-85
2022/04/26 10:13:35;;;;;;;0.60;0.60;;;12.30;95.10;;;;;;5108992;28;20635;-85
2022/04/26 10:16:05;;;;;;;0.80;0.43;;;12.30;95.70;;;;;;5109741;28;20646;-84
2022/04/26 10:18:38;;;;;;;0.50;0.50;;;12.40;94.50;;;;;;5109472;28;20650;-84
2022/04/26 10:21:06;;;;;;;1.33;1.23;;;12.60;94.60;;;;;;5109999;28;20966;-84
2022/04/26 10:24:06;;;;;;;0.93;0.60;;;12.50;94.10;;;;;;5108882;28;20655;-84
2022/04/26 10:26:35;;;;;;;0.50;0.40;;;12.50;93.00;;;;;;5103803;28;20726;-84
2022/04/26 10:29:12;;;;;;;0.73;0.73;;;12.40;92.30;;;;;;5108088;28;20724;-84
2022/04/26 10:31:41;;;;;;;0.30;0.20;;;12.30;91.80;;;;;;5109691;28;20642;-84
2022/04/26 10:34:27;;;;;;;1.80;0.80;;;12.30;92.90;;;;;;5109187;28;20623;-84
2022/04/26 10:36:59;;;;;;;2.87;1.60;;;12.70;93.90;;;;;;5109195;28;20736;-85
2022/04/26 10:39:37;;;;;;;0.67;0.63;;;13.20;93.80;;;;;;5109386;28;20616;-85
2022/04/26 10:42:26;;;;;;;0.30;0.30;;;13.70;93.60;;;;;;5110389;28;20630;-84
2022/04/26 10:44:58;;;;;;;1.07;0.93;;;14.00;90.80;;;;;;5109519;28;20658;-84
2022/04/26 10:47:29;;;;;;;0.90;0.90;;;14.30;91.30;;;;;;5108473;28;20659;-85
2022/04/26 10:49:58;;;;;;;0.63;0.63;;;14.40;90.50;;;;;;5109473;28;21254;-84
2022/04/26 10:52:35;;;;;;;0.30;0.20;;;14.20;85.50;;;;;;5109843;28;20629;-84
2022/04/26 10:55:09;;;;;;;0.67;0.67;;;13.80;84.10;;;;;;5108171;28;21098;-84
2022/04/26 10:57:40;;;;;;;0.50;0.37;;;13.40;81.20;;;;;;5108705;28;20677;-84
2022/04/26 11:00:09;;;;;;;0.50;0.43;;;13.40;82.70;;;;;;5108115;28;20686;-84
2022/04/26 11:02:39;;;;;;;0.33;0.33;;;13.50;84.50;;;;;;5108652;28;20650;-85
2022/04/26 11:05:10;;;;;;;0.80;0.60;;;13.30;85.00;;;;;;5108255;28;20649;-84
2022/04/26 11:07:38;;;;;;;0.40;0.30;;;13.30;83.20;;;;;;5108249;28;20637;-84
2022/04/26 11:10:07;;;;;;;0.30;0.30;;;12.90;84.10;;;;;;5108870;28;20657;-84
2022/04/26 11:12:35;;;;;;;0.53;0.53;;;12.70;83.30;;;;;;5108342;28;20715;-84
2022/04/26 11:15:07;;;;;;;0.43;0.40;;;12.60;84.30;;;;;;5108617;28;20615;-84
2022/04/26 11:17:35;;;;;;;0.60;0.40;;;12.50;81.70;;;;;;5107855;28;20650;-86
2022/04/26 11:20:05;;;;;;;0.30;0.20;;;12.50;83.60;;;;;;5108304;28;21195;-84
2022/04/26 11:22:32;;;;;;;0.63;0.37;;;12.50;83.60;;;;;;5108670;28;20693;-84
2022/04/26 11:28:03;;;;;;;0.87;0.50;;;12.90;85.80;;;;;;5095973;28;20630;-83
2022/04/26 11:30:36;;;;;;;1.33;0.63;;;13.10;82.00;;;;;;5108356;28;20672;-84
2022/04/26 11:33:06;;;;;;;0.77;0.40;;;13.50;84.70;;;;;;5108532;28;20619;-84
2022/04/26 11:35:34;;;;;;;0.50;0.30;;;13.70;85.00;;;;;;5108036;28;20612;-85
2022/04/26 11:38:05;;;;;;;0.53;0.20;;;13.50;88.40;;;;;;5108782;28;20647;-84
2022/04/26 11:40:33;;;;;;;0.30;0.30;;;13.20;89.50;;;;;;5108436;28;20623;-83
2022/04/26 11:43:09;;;;;;;1.27;0.87;;;13.00;90.40;;;;;;5108617;28;21594;-83
2022/04/26 11:45:38;;;;;;;0.70;0.50;;;12.40;90.80;;;;;;5107131;28;20736;-83
2022/04/26 11:48:09;;;;;;;0.97;0.97;;;12.20;91.50;;;;;;5108742;28;20710;-84
2022/04/26 11:50:36;;;;;;;1.03;0.80;;;12.20;92.20;;;;;;5108229;28;20950;-84
2022/04/26 11:53:06;;;;;;;0.70;0.63;;;12.10;91.50;;;;;;5108002;28;20631;-83
2022/04/26 11:55:34;;;;;;;0.60;0.60;;;11.90;92.40;;;;;;5107566;28;21168;-84
2022/04/26 11:58:13;;;;;;;0.30;0.20;;;11.80;92.00;;;;;;5108070;28;20654;-84
2022/04/26 12:00:59;;;;;;;0.60;0.60;;;11.90;92.70;;;;;;5107623;28;20634;-84
2022/04/26 12:03:28;;;;;;;0.30;0.20;;;12.60;93.10;;;;;;5108307;28;20724;-84
2022/04/26 12:05:57;;;;;;;3.07;1.87;;;13.90;91.40;;;;;;5107864;28;20658;-84
2022/04/26 12:08:25;;;;;;;0.83;0.83;;;14.80;87.90;;;;;;5108034;28;20680;-84
2022/04/26 12:10:52;;;;;;;0.50;0.30;;;14.40;85.60;;;;;;5107775;28;20722;-84
2022/04/26 12:13:33;;;;;;;0.30;0.20;;;13.90;87.40;;;;;;5103847;28;20635;-83
2022/04/26 12:16:21;;;;;;;0.83;0.67;;;13.30;88.10;;;;;;5107717;28;20734;-84
2022/04/26 12:18:53;;;;;;;0.50;0.50;;;12.60;89.90;;;;;;5108215;28;20705;-84
2022/04/26 12:21:21;;;;;;;1.13;0.33;;;12.10;91.40;;;;;;5107758;28;20617;-85
2022/04/26 12:23:48;;;;;;;1.03;0.80;;;11.90;93.20;;;;;;5108055;28;20655;-84
2022/04/26 12:26:15;;;;;;;0.30;0.20;;;11.70;93.90;;;;;;5107579;28;21173;-84
2022/04/26 12:28:50;;;;;;;2.00;0.90;;;11.80;94.60;;;;;;5107982;28;20642;-84
2022/04/26 12:31:29;;;;;;;0.30;0.20;;;11.50;93.10;;;;;;5107566;28;21036;-84
2022/04/26 12:34:13;;;;;;;0.60;0.60;;;11.50;93.70;;;;;;5108090;28;20636;-84
2022/04/26 12:36:58;;;;;;;0.50;0.40;;;11.80;94.80;;;;;;5088094;28;20672;-84
2022/04/26 12:39:27;;;;;;;1.00;1.00;;;11.80;94.80;;;;;;5111367;28;20662;-85
2022/04/26 12:41:56;;;;;;;0.77;0.70;;;11.80;95.00;;;;;;5111296;28;20695;-85
2022/04/26 12:44:24;;;;;;;0.37;0.27;;;11.50;94.00;;;;;;5106679;27;20674;-85
2022/04/26 12:52:47;;;;;;;0.30;0.23;;;10.50;95.50;;;;;;5110835;28;20625;-87
2022/04/26 12:55:14;;;;;;;0.30;0.20;;;10.10;96.40;;;;;;5110472;28;21269;-86
2022/04/26 12:57:48;;;;;;;0.30;0.10;;;9.90;97.70;;;;;;5111172;28;20677;-88
2022/04/26 13:00:18;;;;;;;3.60;1.13;;;9.70;97.60;;;;;;5097157;28;20672;-89
2022/04/26 13:02:48;;;;;;;0.60;0.30;;;9.60;98.70;;;;;;5112893;28;20623;-90
2022/04/26 13:05:15;;;;;;;0.30;0.20;;;9.40;99.60;;;;;;5112460;28;20623;-90
2022/04/26 13:07:42;;;;;;;0.40;0.30;;;9.10;99.20;;;;;;5111964;28;20639;-87
2022/04/26 13:10:09;;;;;;;0.47;0.47;;;9.00;99.90;;;;;;5111870;28;20618;-87
2022/04/26 13:12:37;;;;;;;0.63;0.50;;;9.00;99.90;;;;;;5112073;28;20704;-89
2022/04/26 13:15:05;;;;;;;0.30;0.10;;;9.00;99.90;;;;;;5111751;28;21216;-88
2022/04/26 13:17:31;;;;;;;0.30;0.20;;;9.30;99.90;;;;;;5111131;28;20632;-87
2022/04/26 13:20:00;;;;;;;0.30;0.10;;;9.70;99.90;;;;;;5111037;28;20758;-87
2022/04/26 13:22:27;;;;;;;0.30;0.10;;;10.10;99.90;;;;;;5111413;27;20684;-86
2022/04/26 13:24:53;;;;;;;0.30;0.27;;;10.50;99.70;;;;;;5110805;28;20679;-87
2022/04/26 13:27:20;;;;;;;0.30;0.10;;;11.50;99.10;;;;;;5101419;28;20636;-86
2022/04/26 13:29:49;;;;;;;0.40;0.23;;;11.80;96.30;;;;;;5110270;28;20614;-86
2022/04/26 13:32:17;;;;;;;0.30;0.20;;;12.20;96.90;;;;;;5109833;28;20638;-87
2022/04/26 13:34:44;;;;;;;0.60;0.50;;;14.10;95.60;;;;;;5111218;28;20745;-87
2022/04/26 13:37:13;;;;;;;0.40;0.20;;;15.20;93.50;;;;;;5110229;28;20628;-86
2022/04/26 13:39:40;;;;;;;0.40;0.23;;;16.10;90.70;;;;;;5110780;28;20675;-85
2022/04/26 13:42:09;;;;;;;0.77;0.43;;;15.70;89.00;;;;;;5110189;28;20620;-85
2022/04/26 13:44:36;;;;;;;0.50;0.40;;;15.00;88.20;;;;;;5110364;28;21209;-86
2022/04/26 13:47:04;;;;;;;0.40;0.40;;;15.10;90.90;;;;;;5110349;28;20715;-85
2022/04/26 13:49:34;;;;;;;0.73;0.53;;;16.20;89.50;;;;;;5109475;28;20634;-86
2022/04/26 13:52:01;;;;;;;0.47;0.47;;;16.20;88.10;;;;;;5110207;28;20639;-85
2022/04/26 13:54:29;;;;;;;0.30;0.30;;;15.50;80.50;;;;;;5110060;28;21039;-85
2022/04/26 13:56:56;;;;;;;0.47;0.47;;;16.00;81.50;;;;;;5109956;28;21223;-85
2022/04/26 13:59:25;;;;;;;0.40;0.40;;;17.10;78.10;;;;;;5109329;28;20683;-85
2022/04/26 14:01:52;;;;;;;0.60;0.30;;;17.90;78.70;;;;;;5110098;28;20662;-85
2022/04/26 14:04:19;;;;;;;0.40;0.30;;;18.40;73.70;;;;;;5109524;28;21517;-85
2022/04/26 14:06:46;;;;;;;0.80;0.80;;;17.70;70.80;;;;;;5109825;28;20620;-84
2022/04/26 14:09:13;;;;;;;1.00;0.30;;;17.70;74.10;;;;;;5109440;28;20706;-85
2022/04/26 14:11:41;;;;;;;0.60;0.50;;;17.20;72.50;;;;;;5109187;28;20623;-85
2022/04/26 14:22:21;;;;;;;0.40;0.30;;;15.30;76.20;;;;;;5108214;27;20658;-86
2022/04/26 14:24:52;;;;;;;0.30;0.27;;;15.10;74.90;;;;;;5109268;28;20659;-84
2022/04/26 14:27:20;;;;;;;0.40;0.40;;;14.90;74.60;;;;;;5108569;28;20667;-84
2022/04/26 14:29:48;;;;;;;0.40;0.27;;;14.80;75.30;;;;;;5109499;28;20623;-84
2022/04/26 14:32:15;;;;;;;0.40;0.33;;;14.90;75.30;;;;;;5109112;28;20723;-84
2022/04/26 14:34:42;;;;;;;0.30;0.30;;;15.40;75.30;;;;;;5109171;28;20649;-83
2022/04/26 14:37:10;;;;;;;0.30;0.20;;;15.30;71.40;;;;;;5108651;28;20718;-83
2022/04/26 14:39:37;;;;;;;0.73;0.73;;;15.30;73.20;;;;;;5108791;28;20756;-85
2022/04/26 14:42:05;;;;;;;0.40;0.30;;;15.60;69.80;;;;;;5109055;28;20984;-84
2022/04/26 14:44:33;;;;;;;0.40;0.30;;;15.70;70.90;;;;;;5109206;28;20628;-85
2022/04/26 14:47:01;;;;;;;0.47;0.47;;;15.90;72.70;;;;;;5108385;28;20630;-84
2022/04/26 14:49:28;;;;;;;0.30;0.20;;;16.10;75.00;;;;;;5109003;28;20627;-84
2022/04/26 14:51:55;;;;;;;0.60;0.60;;;16.10;76.60;;;;;;5108774;28;20726;-84
2022/04/26 14:54:22;;;;;;;0.67;0.63;;;15.80;73.50;;;;;;5108977;28;21180;-83
2022/04/26 14:56:50;;;;;;;0.40;0.30;;;15.30;72.30;;;;;;5108411;28;20727;-83
2022/04/26 14:59:17;;;;;;;0.60;0.60;;;15.10;73.00;;;;;;5108908;28;20659;-83
2022/04/26 15:01:46;;;;;;;0.40;0.30;;;15.30;76.90;;;;;;5107538;28;20637;-83
2022/04/26 15:04:13;;;;;;;0.60;0.60;;;14.90;71.80;;;;;;5109069;28;20627;-83
2022/04/26 15:06:40;;;;;;;0.37;0.27;;;15.10;74.80;;;;;;5108289;28;21248;-83
2022/04/26 15:16:37;;;;;;;0.30;0.20;;;15.10;72.80;;;;;;5108616;28;21227;-84
2022/04/26 15:17:25;;;;;;;0.30;0.20;;;15.10;70.80;;;;;;5108496;28;20963;-85
2022/04/26 15:19:52;;;;;;;0.30;0.20;;;15.00;69.30;;;;;;5088369;28;20710;-84
2022/04/26 15:22:19;;;;;;;0.40;0.20;;;14.50;68.00;;;;;;5101488;28;20658;-83
2022/04/26 15:24:47;;;;;;;0.50;0.43;;;14.60;69.10;;;;;;5108269;28;20654;-83
2022/04/26 15:27:15;;;;;;;0.40;0.40;;;14.70;69.80;;;;;;5108219;28;20618;-83
2022/04/26 15:29:42;;;;;;;0.30;0.20;;;14.90;70.60;;;;;;5108308;28;21197;-83
2022/04/26 15:32:10;;;;;;;0.30;0.30;;;14.30;68.20;;;;;;5108616;28;20656;-86
2022/04/26 15:34:38;;;;;;;0.30;0.30;;;14.00;68.90;;;;;;5108553;28;20705;-83
2022/04/26 15:37:06;;;;;;;0.40;0.33;;;13.60;69.00;;;;;;5108040;28;20655;-83
2022/04/26 15:39:34;;;;;;;0.50;0.50;;;13.40;72.40;;;;;;5108023;28;21316;-84
2022/04/26 15:42:01;;;;;;;0.30;0.20;;;13.30;73.60;;;;;;5108101;28;20727;-85
2022/04/26 15:44:29;;;;;;;0.50;0.47;;;13.10;74.30;;;;;;5107160;28;20628;-84
2022/04/26 15:46:56;;;;;;;0.60;0.40;;;12.90;74.60;;;;;;5107915;28;20739;-85
2022/04/26 15:49:24;;;;;;;0.47;0.47;;;12.70;77.10;;;;;;5109173;28;20628;-84
2022/04/26 15:51:54;;;;;;;0.30;0.20;;;12.50;79.10;;;;;;5108423;28;20608;-84
2022/04/26 15:54:21;;;;;;;0.37;0.30;;;12.10;81.70;;;;;;5108204;28;20641;-84
2022/04/26 15:56:48;;;;;;;0.30;0.20;;;11.60;87.90;;;;;;5108239;28;21256;-86
2022/04/26 15:59:15;;;;;;;0.70;0.50;;;11.20;92.80;;;;;;5108820;28;20713;-86
2022/04/26 16:01:42;;;;;;;0.30;0.30;;;10.70;94.50;;;;;;5108215;28;20721;-85
2022/04/26 16:04:10;;;;;;;0.40;0.40;;;10.60;97.20;;;;;;5108516;28;20702;-85
2022/04/26 16:06:39;;;;;;;0.40;0.40;;;10.80;97.80;;;;;;5108097;28;20626;-85
2022/04/26 16:22:51;;;;;;;0.30;0.20;;;10.50;97.40;;;;;;5111415;28;20615;-84
2022/04/26 16:25:19;;;;;;;0.30;0.20;;;10.50;97.10;;;;;;5111392;28;21224;-86
2022/04/26 16:27:48;;;;;;;1.67;0.80;;;10.60;97.20;;;;;;5112127;28;20724;-85
2022/04/26 16:30:15;;;;;;;0.30;0.27;;;10.80;96.60;;;;;;5111367;28;20623;-85
2022/04/26 16:32:41;;;;;;;0.30;0.10;;;10.90;95.50;;;;;;5111247;28;20655;-85
2022/04/26 16:35:10;;;;;;;0.33;0.33;;;11.00;95.90;;;;;;5110457;28;20747;-84
2022/04/26 16:37:37;;;;;;;1.73;0.77;;;11.20;96.20;;;;;;5111079;28;21278;-85
2022/04/26 16:40:05;;;;;;;0.70;0.70;;;11.20;96.00;;;;;;5110509;28;20776;-85
2022/04/26 16:42:33;;;;;;;0.40;0.33;;;11.20;95.20;;;;;;5112069;28;20594;-85
2022/04/26 16:45:00;;;;;;;0.70;0.47;;;11.10;94.50;;;;;;5111725;28;20660;-85
2022/04/26 16:47:27;;;;;;;0.40;0.30;;;11.20;93.90;;;;;;5110807;28;20679;-86
2022/04/26 16:49:54;;;;;;;1.00;0.43;;;11.20;93.60;;;;;;5111842;28;20714;-85
2022/04/26 16:52:21;;;;;;;0.97;0.30;;;11.10;94.40;;;;;;5111341;28;20627;-85
2022/04/26 16:54:49;;;;;;;1.05;0.60;;;11.20;94.60;;;;;;5111456;28;20834;-85
2022/04/26 16:57:17;;;;;;;0.30;0.30;;;11.20;94.70;;;;;;5110800;28;20204;-85
2022/04/26 16:59:45;;;;;;;0.60;0.60;;;11.10;94.70;;;;;;5112123;28;20779;-86
2022/04/26 17:02:14;;;;;;;0.50;0.37;;;11.20;95.50;;;;;;5111889;28;20664;-84
2022/04/26 17:04:41;;;;;;;0.57;0.40;;;11.00;94.90;;;;;;5111489;28;20632;-84
2022/04/26 17:07:08;;;;;;;0.30;0.13;;;10.90;95.20;;;;;;5110461;28;20624;-85
2022/04/26 17:09:36;;;;;;;0.30;0.10;;;10.80;96.20;;;;;;5111915;28;20673;-86
2022/04/26 17:12:04;;;;;;;0.40;0.30;;;10.80;96.70;;;;;;5111438;28;20616;-85
2022/04/26 17:14:32;;;;;;;0.30;0.10;;;10.60;96.50;;;;;;5112328;28;20684;-85
2022/04/26 17:17:00;;;;;;;0.30;0.23;;;10.50;97.50;;;;;;5111065;28;20647;-85
2022/04/26 17:19:27;;;;;;;0.30;0.10;;;10.50;97.80;;;;;;5111064;28;20655;-85
2022/04/26 17:21:56;;;;;;;0.30;0.20;;;10.60;98.10;;;;;;5110584;28;21196;-85